Silver Shadow — C6FN6 — position and weather

sailwx.info

Track history (hours):
 
Tides and Currents Weather Stations Pressure Air Temp Water Temp Dewpoint Dewpoint Depression Visibility Wind Speed Wind Dir Waves Ship Positions

Silver Shadow

Operator: V Ships Leisure SAM

Last reported at 2019-Jul-20 13:00 UTC. Time now 2019-Jul-20 13:29 UTC.
Position N 43°33' E 010°18'.

Length 186 m; draft 6.1 m.

Type: Passenger vessel. MMSI: 308628000.

Date/timePositionNaut miles runAvg speedWind from/ knotsBaromVisibWave heightAir tempDewpointWater temp
2019-Jul-20 13:00N 43°33' E 010°18'0 0.0
2019-Jul-20 12:30N 43°33' E 010°18'0 0.0
2019-Jul-20 12:00N 43°33' E 010°18'0 0.0
2019-Jul-20 11:30N 43°33' E 010°18'0 0.0
2019-Jul-20 11:00N 43°33' E 010°18'0 0.0
2019-Jul-20 10:30N 43°33' E 010°18'0 0.0
2019-Jul-20 10:00N 43°33' E 010°18'0 0.0
2019-Jul-20 09:30N 43°33' E 010°18'0 0.0
2019-Jul-20 09:00N 43°33' E 010°18'0 0.0
2019-Jul-20 08:30N 43°33' E 010°18'0 0.0
2019-Jul-20 08:00N 43°33' E 010°18'0 0.0
2019-Jul-20 07:30N 43°33' E 010°18'0 0.0
2019-Jul-20 07:00N 43°33' E 010°18'0 0.0
2019-Jul-20 06:30N 43°33' E 010°18'0 0.0
2019-Jul-20 06:00N 43°33' E 010°18'0 0.0
2019-Jul-20 05:30N 43°33' E 010°18'1 1.9
2019-Jul-20 05:01N 43°32' E 010°17'510.9
2019-Jul-20 04:30N 43°29' E 010°12'510.7
2019-Jul-20 04:00N 43°25' E 010°07'611.4
2019-Jul-20 03:30N 43°20' E 010°02'510.3
2019-Jul-20 03:01N 43°17' E 009°56'510.1
2019-Jul-20 02:31N 43°14' E 009°51'510.2
2019-Jul-20 02:01N 43°11' E 009°45'510.2
2019-Jul-20 01:31N 43°07' E 009°41'510.0
2019-Jul-20 01:01N 43°02' E 009°39'510.8
2019-Jul-20 00:30N 42°57' E 009°41'510.5
2019-Jul-20 00:00N 42°52' E 009°43'510.5
2019-Jul-19 23:31N 42°46' E 009°44'510.7
2019-Jul-19 23:01N 42°41' E 009°44'510.8
2019-Jul-19 22:30N 42°36' E 009°44'510.6
2019-Jul-19 22:00N 42°30' E 009°44'510.7
2019-Jul-19 21:30N 42°25' E 009°44'510.7
2019-Jul-19 21:00N 42°20' E 009°44'510.7
2019-Jul-19 20:30N 42°14' E 009°44'510.8
2019-Jul-19 20:00N 42°09' E 009°44'510.8
2019-Jul-19 19:30N 42°04' E 009°43'710.7
2019-Jul-19 18:49N 41°56' E 009°41'910.6
2019-Jul-19 17:58N 41°48' E 009°38'610.6
2019-Jul-19 17:22N 41°42' E 009°36'410.5
2019-Jul-19 17:00N 41°38' E 009°34'7 0.5
2019-Jul-19 03:49N 41°37' E 009°25'4 7.8
2019-Jul-19 03:18N 41°38' E 009°30'41 7.4
2019-Jul-18 21:46N 40°58' E 009°42'0 0.0
2019-Jul-18 04:26N 40°58' E 009°42'510.4
2019-Jul-18 04:00N 41°01' E 009°47'1011.1
2019-Jul-18 03:07N 41°08' E 009°55'111.1
2019-Jul-18 03:00N 41°09' E 009°56'611.1
2019-Jul-18 02:28N 41°14' E 010°00'510.0
2019-Jul-18 01:56N 41°18' E 010°05'613.5
2019-Jul-18 01:30N 41°18' E 010°13'711.9
2019-Jul-18 00:57N 41°20' E 010°21'610.8
2019-Jul-18 00:26N 41°23' E 010°27'510.9
2019-Jul-18 00:00N 41°26' E 010°32'510.6
2019-Jul-17 23:30N 41°29' E 010°38'610.7
2019-Jul-17 22:58N 41°33' E 010°44'510.8
2019-Jul-17 22:30N 41°36' E 010°49'5 9.9
2019-Jul-17 22:00N 41°39' E 010°54'5 9.6
2019-Jul-17 21:30N 41°42' E 010°60'5 9.9
2019-Jul-17 21:00N 41°45' E 011°05'510.0
2019-Jul-17 20:30N 41°48' E 011°10'610.1
2019-Jul-17 19:56N 41°51' E 011°16'510.1
2019-Jul-17 19:29N 41°54' E 011°21'108 4.6
2019-Jul-16 20:03N 40°45' E 013°11'114.0
2019-Jul-16 20:00N 40°44' E 013°12'713.8
2019-Jul-16 19:30N 40°42' E 013°21'714.0
2019-Jul-16 18:58N 40°41' E 013°30'613.8
2019-Jul-16 18:30N 40°39' E 013°39'713.8
2019-Jul-16 18:00N 40°38' E 013°48'713.8
2019-Jul-16 17:30N 40°38' E 013°57'713.7
2019-Jul-16 17:00N 40°38' E 014°06'713.6
2019-Jul-16 16:31N 40°40' E 014°14'611.5
2019-Jul-16 16:00N 40°39' E 014°22'1 1.4
2019-Jul-16 15:30N 40°38' E 014°23'0 0.2
2019-Jul-16 15:00N 40°38' E 014°23'0 0.2
2019-Jul-16 14:30N 40°38' E 014°22'0 0.1
2019-Jul-16 13:51N 40°38' E 014°22'0 0.1
2019-Jul-16 13:30N 40°38' E 014°22'0 0.0
2019-Jul-16 13:00N 40°38' E 014°22'0 0.0
2019-Jul-16 12:24N 40°38' E 014°22'0 0.0
2019-Jul-16 11:54N 40°38' E 014°22'0 0.0
2019-Jul-16 11:30N 40°38' E 014°22'0 0.1
2019-Jul-16 10:54N 40°38' E 014°22'0 0.0
2019-Jul-16 10:27N 40°38' E 014°22'0 0.1
2019-Jul-16 09:57N 40°38' E 014°22'0 0.1
2019-Jul-16 09:27N 40°38' E 014°22'0 0.0
2019-Jul-16 08:57N 40°38' E 014°22'0 0.1
2019-Jul-16 08:27N 40°38' E 014°22'0 0.2
2019-Jul-16 08:00N 40°38' E 014°23'0 0.1
2019-Jul-16 07:30N 40°38' E 014°22'0 0.1
2019-Jul-16 07:00N 40°38' E 014°23'0 0.2
2019-Jul-16 06:30N 40°38' E 014°22'0 0.1
2019-Jul-16 06:00N 40°38' E 014°22'0 0.0
2019-Jul-16 05:30N 40°38' E 014°22'0 0.0
2019-Jul-16 05:00N 40°38' E 014°22'0 0.0
2019-Jul-16 04:30N 40°38' E 014°22'0 0.1
2019-Jul-16 04:00N 40°38' E 014°22'0 0.2
2019-Jul-16 03:30N 40°38' E 014°22'0 0.2
2019-Jul-16 03:00N 40°38' E 014°22'0 0.2
2019-Jul-16 02:30N 40°38' E 014°22'0 0.2
2019-Jul-16 02:00N 40°38' E 014°23'0 0.0
2019-Jul-16 01:30N 40°38' E 014°23'0 0.2
2019-Jul-16 01:00N 40°39' E 014°23'0 0.2
2019-Jul-16 00:21N 40°38' E 014°22'0 0.1
2019-Jul-15 23:57N 40°38' E 014°22'0 0.2
2019-Jul-15 23:21N 40°39' E 014°22'0 0.1
2019-Jul-15 22:54N 40°39' E 014°22'0 0.0
2019-Jul-15 22:24N 40°39' E 014°22'0 0.1
2019-Jul-15 21:57N 40°39' E 014°22'0 0.1
2019-Jul-15 21:27N 40°38' E 014°22'0 0.1
2019-Jul-15 21:00N 40°39' E 014°22'0 0.1
2019-Jul-15 20:27N 40°38' E 014°22'0 0.0
2019-Jul-15 19:57N 40°38' E 014°22'0 0.1
2019-Jul-15 19:27N 40°39' E 014°22'0 0.0
2019-Jul-15 18:57N 40°39' E 014°22'0 0.0
2019-Jul-15 18:27N 40°39' E 014°22'0 0.1
2019-Jul-15 18:00N 40°39' E 014°22'0 0.1
2019-Jul-15 17:24N 40°38' E 014°22'0 0.1
2019-Jul-15 16:54N 40°39' E 014°22'1 1.3
2019-Jul-15 16:23N 40°39' E 014°23'0 0.1
2019-Jul-15 15:53N 40°39' E 014°23'0 0.1
2019-Jul-15 15:23N 40°39' E 014°23'0 0.0
2019-Jul-15 14:53N 40°39' E 014°23'0 0.1
2019-Jul-15 14:29N 40°39' E 014°23'0 0.1
2019-Jul-15 13:59N 40°39' E 014°23'0 0.2
2019-Jul-15 13:26N 40°39' E 014°23'0 0.0
2019-Jul-15 12:56N 40°39' E 014°23'0 0.1
2019-Jul-15 12:26N 40°39' E 014°23'0 0.1
2019-Jul-15 11:59N 40°39' E 014°23'0 0.1
2019-Jul-15 11:29N 40°39' E 014°23'0 0.0
2019-Jul-15 10:59N 40°39' E 014°23'0 0.0
2019-Jul-15 10:29N 40°39' E 014°23'0 0.1
2019-Jul-15 09:59N 40°39' E 014°23'0 0.1
2019-Jul-15 09:29N 40°39' E 014°23'0 0.1
2019-Jul-15 08:59N 40°39' E 014°23'0 0.0
2019-Jul-15 08:29N 40°39' E 014°23'0 0.1
2019-Jul-15 07:59N 40°39' E 014°23'0 0.0
2019-Jul-15 07:29N 40°39' E 014°23'0 0.1
2019-Jul-15 06:59N 40°39' E 014°23'0 0.1
2019-Jul-15 06:29N 40°39' E 014°23'2 3.9
2019-Jul-15 06:00N 40°40' E 014°22'713.2
2019-Jul-15 05:30N 40°38' E 014°13'815.4
2019-Jul-15 05:00N 40°35' E 014°04'816.2
2019-Jul-15 04:30N 40°32' E 013°54'815.8
2019-Jul-15 04:00N 40°28' E 013°45'815.8
2019-Jul-15 03:30N 40°25' E 013°35'10515.6
2019-Jul-14 20:45N 39°49' E 011°26'1314.1
2019-Jul-14 19:49N 39°37' E 011°18'10414.8
2019-Jul-14 12:49N 39°01' E 009°13'515.1
2019-Jul-14 12:30N 39°05' E 009°10'714.8
2019-Jul-14 12:00N 39°12' E 009°06'1 1.8
2019-Jul-14 11:28N 39°13' E 009°06'0 0.0
2019-Jul-14 10:58N 39°13' E 009°06'0 0.0
2019-Jul-14 10:19N 39°13' E 009°06'0 0.0
2019-Jul-14 09:55N 39°13' E 009°06'0 0.0
2019-Jul-14 09:25N 39°13' E 009°06'0 0.0
2019-Jul-14 08:52N 39°13' E 009°06'0 0.0
2019-Jul-14 08:22N 39°13' E 009°06'0 0.0
2019-Jul-14 07:58N 39°13' E 009°06'0 0.0
2019-Jul-14 07:25N 39°13' E 009°06'0 0.0
2019-Jul-14 06:58N 39°13' E 009°06'0 0.0
2019-Jul-14 06:22N 39°13' E 009°06'0 0.0
2019-Jul-14 05:58N 39°13' E 009°06'0 0.0
2019-Jul-14 05:30N 39°13' E 009°06'2 3.1
2019-Jul-14 05:00N 39°11' E 009°07'611.4
2019-Jul-14 04:30N 39°06' E 009°10'  
Track history (hours):
 
Tides and Currents Weather Stations Pressure Air Temp Water Temp Dewpoint Dewpoint Depression Visibility Wind Speed Wind Dir Waves Ship Positions

Silver Shadow

Operator: V Ships Leisure SAM

Last reported at 2019-Jul-20 13:00 UTC. Time now 2019-Jul-20 13:29 UTC.
Position N 43°33' E 010°18'.

Length 186 m; draft 6.1 m.

Type: Passenger vessel. MMSI: 308628000.

Date/timePositionNaut miles runAvg speedWind from/ knotsBaromVisibWave heightAir tempDewpointWater temp
2019-Jul-20 13:00N 43°33' E 010°18'0 0.0
2019-Jul-20 12:30N 43°33' E 010°18'0 0.0
2019-Jul-20 12:00N 43°33' E 010°18'0 0.0
2019-Jul-20 11:30N 43°33' E 010°18'0 0.0
2019-Jul-20 11:00N 43°33' E 010°18'0 0.0
2019-Jul-20 10:30N 43°33' E 010°18'0 0.0
2019-Jul-20 10:00N 43°33' E 010°18'0 0.0
2019-Jul-20 09:30N 43°33' E 010°18'0 0.0
2019-Jul-20 09:00N 43°33' E 010°18'0 0.0
2019-Jul-20 08:30N 43°33' E 010°18'0 0.0
2019-Jul-20 08:00N 43°33' E 010°18'0 0.0
2019-Jul-20 07:30N 43°33' E 010°18'0 0.0
2019-Jul-20 07:00N 43°33' E 010°18'0 0.0
2019-Jul-20 06:30N 43°33' E 010°18'0 0.0
2019-Jul-20 06:00N 43°33' E 010°18'0 0.0
2019-Jul-20 05:30N 43°33' E 010°18'1 1.9
2019-Jul-20 05:01N 43°32' E 010°17'510.9
2019-Jul-20 04:30N 43°29' E 010°12'510.7
2019-Jul-20 04:00N 43°25' E 010°07'611.4
2019-Jul-20 03:30N 43°20' E 010°02'510.3
2019-Jul-20 03:01N 43°17' E 009°56'510.1
2019-Jul-20 02:31N 43°14' E 009°51'510.2
2019-Jul-20 02:01N 43°11' E 009°45'510.2
2019-Jul-20 01:31N 43°07' E 009°41'510.0
2019-Jul-20 01:01N 43°02' E 009°39'510.8
2019-Jul-20 00:30N 42°57' E 009°41'510.5
2019-Jul-20 00:00N 42°52' E 009°43'510.5
2019-Jul-19 23:31N 42°46' E 009°44'510.7
2019-Jul-19 23:01N 42°41' E 009°44'510.8
2019-Jul-19 22:30N 42°36' E 009°44'510.6
2019-Jul-19 22:00N 42°30' E 009°44'510.7
2019-Jul-19 21:30N 42°25' E 009°44'510.7
2019-Jul-19 21:00N 42°20' E 009°44'510.7
2019-Jul-19 20:30N 42°14' E 009°44'510.8
2019-Jul-19 20:00N 42°09' E 009°44'510.8
2019-Jul-19 19:30N 42°04' E 009°43'710.7
2019-Jul-19 18:49N 41°56' E 009°41'910.6
2019-Jul-19 17:58N 41°48' E 009°38'610.6
2019-Jul-19 17:22N 41°42' E 009°36'410.5
2019-Jul-19 17:00N 41°38' E 009°34'7 0.5
2019-Jul-19 03:49N 41°37' E 009°25'4 7.8
2019-Jul-19 03:18N 41°38' E 009°30'41 7.4
2019-Jul-18 21:46N 40°58' E 009°42'0 0.0
2019-Jul-18 04:26N 40°58' E 009°42'510.4
2019-Jul-18 04:00N 41°01' E 009°47'1011.1
2019-Jul-18 03:07N 41°08' E 009°55'111.1
2019-Jul-18 03:00N 41°09' E 009°56'611.1
2019-Jul-18 02:28N 41°14' E 010°00'510.0
2019-Jul-18 01:56N 41°18' E 010°05'613.5
2019-Jul-18 01:30N 41°18' E 010°13'711.9
2019-Jul-18 00:57N 41°20' E 010°21'610.8
2019-Jul-18 00:26N 41°23' E 010°27'510.9
2019-Jul-18 00:00N 41°26' E 010°32'510.6
2019-Jul-17 23:30N 41°29' E 010°38'610.7
2019-Jul-17 22:58N 41°33' E 010°44'510.8
2019-Jul-17 22:30N 41°36' E 010°49'5 9.9
2019-Jul-17 22:00N 41°39' E 010°54'5 9.6
2019-Jul-17 21:30N 41°42' E 010°60'5 9.9
2019-Jul-17 21:00N 41°45' E 011°05'510.0
2019-Jul-17 20:30N 41°48' E 011°10'610.1
2019-Jul-17 19:56N 41°51' E 011°16'510.1
2019-Jul-17 19:29N 41°54' E 011°21'108 4.6
2019-Jul-16 20:03N 40°45' E 013°11'114.0
2019-Jul-16 20:00N 40°44' E 013°12'713.8
2019-Jul-16 19:30N 40°42' E 013°21'714.0
2019-Jul-16 18:58N 40°41' E 013°30'613.8
2019-Jul-16 18:30N 40°39' E 013°39'713.8
2019-Jul-16 18:00N 40°38' E 013°48'713.8
2019-Jul-16 17:30N 40°38' E 013°57'713.7
2019-Jul-16 17:00N 40°38' E 014°06'713.6
2019-Jul-16 16:31N 40°40' E 014°14'611.5
2019-Jul-16 16:00N 40°39' E 014°22'1 1.4
2019-Jul-16 15:30N 40°38' E 014°23'0 0.2
2019-Jul-16 15:00N 40°38' E 014°23'0 0.2
2019-Jul-16 14:30N 40°38' E 014°22'0 0.1
2019-Jul-16 13:51N 40°38' E 014°22'0 0.1
2019-Jul-16 13:30N 40°38' E 014°22'0 0.0
2019-Jul-16 13:00N 40°38' E 014°22'0 0.0
2019-Jul-16 12:24N 40°38' E 014°22'0 0.0
2019-Jul-16 11:54N 40°38' E 014°22'0 0.0
2019-Jul-16 11:30N 40°38' E 014°22'0 0.1
2019-Jul-16 10:54N 40°38' E 014°22'0 0.0
2019-Jul-16 10:27N 40°38' E 014°22'0 0.1
2019-Jul-16 09:57N 40°38' E 014°22'0 0.1
2019-Jul-16 09:27N 40°38' E 014°22'0 0.0
2019-Jul-16 08:57N 40°38' E 014°22'0 0.1
2019-Jul-16 08:27N 40°38' E 014°22'0 0.2
2019-Jul-16 08:00N 40°38' E 014°23'0 0.1
2019-Jul-16 07:30N 40°38' E 014°22'0 0.1
2019-Jul-16 07:00N 40°38' E 014°23'0 0.2
2019-Jul-16 06:30N 40°38' E 014°22'0 0.1
2019-Jul-16 06:00N 40°38' E 014°22'0 0.0
2019-Jul-16 05:30N 40°38' E 014°22'0 0.0
2019-Jul-16 05:00N 40°38' E 014°22'0 0.0
2019-Jul-16 04:30N 40°38' E 014°22'0 0.1
2019-Jul-16 04:00N 40°38' E 014°22'0 0.2
2019-Jul-16 03:30N 40°38' E 014°22'0 0.2
2019-Jul-16 03:00N 40°38' E 014°22'0 0.2
2019-Jul-16 02:30N 40°38' E 014°22'0 0.2
2019-Jul-16 02:00N 40°38' E 014°23'0 0.0
2019-Jul-16 01:30N 40°38' E 014°23'0 0.2
2019-Jul-16 01:00N 40°39' E 014°23'0 0.2
2019-Jul-16 00:21N 40°38' E 014°22'0 0.1
2019-Jul-15 23:57N 40°38' E 014°22'0 0.2
2019-Jul-15 23:21N 40°39' E 014°22'0 0.1
2019-Jul-15 22:54N 40°39' E 014°22'0 0.0
2019-Jul-15 22:24N 40°39' E 014°22'0 0.1
2019-Jul-15 21:57N 40°39' E 014°22'0 0.1
2019-Jul-15 21:27N 40°38' E 014°22'0 0.1
2019-Jul-15 21:00N 40°39' E 014°22'0 0.1
2019-Jul-15 20:27N 40°38' E 014°22'0 0.0
2019-Jul-15 19:57N 40°38' E 014°22'0 0.1
2019-Jul-15 19:27N 40°39' E 014°22'0 0.0
2019-Jul-15 18:57N 40°39' E 014°22'0 0.0
2019-Jul-15 18:27N 40°39' E 014°22'0 0.1
2019-Jul-15 18:00N 40°39' E 014°22'0 0.1
2019-Jul-15 17:24N 40°38' E 014°22'0 0.1
2019-Jul-15 16:54N 40°39' E 014°22'1 1.3
2019-Jul-15 16:23N 40°39' E 014°23'0 0.1
2019-Jul-15 15:53N 40°39' E 014°23'0 0.1
2019-Jul-15 15:23N 40°39' E 014°23'0 0.0
2019-Jul-15 14:53N 40°39' E 014°23'0 0.1
2019-Jul-15 14:29N 40°39' E 014°23'0 0.1
2019-Jul-15 13:59N 40°39' E 014°23'0 0.2
2019-Jul-15 13:26N 40°39' E 014°23'0 0.0
2019-Jul-15 12:56N 40°39' E 014°23'0 0.1
2019-Jul-15 12:26N 40°39' E 014°23'0 0.1
2019-Jul-15 11:59N 40°39' E 014°23'0 0.1
2019-Jul-15 11:29N 40°39' E 014°23'0 0.0
2019-Jul-15 10:59N 40°39' E 014°23'0 0.0
2019-Jul-15 10:29N 40°39' E 014°23'0 0.1
2019-Jul-15 09:59N 40°39' E 014°23'0 0.1
2019-Jul-15 09:29N 40°39' E 014°23'0 0.1
2019-Jul-15 08:59N 40°39' E 014°23'0 0.0
2019-Jul-15 08:29N 40°39' E 014°23'0 0.1
2019-Jul-15 07:59N 40°39' E 014°23'0 0.0
2019-Jul-15 07:29N 40°39' E 014°23'0 0.1
2019-Jul-15 06:59N 40°39' E 014°23'0 0.1
2019-Jul-15 06:29N 40°39' E 014°23'2 3.9
2019-Jul-15 06:00N 40°40' E 014°22'713.2
2019-Jul-15 05:30N 40°38' E 014°13'815.4
2019-Jul-15 05:00N 40°35' E 014°04'816.2
2019-Jul-15 04:30N 40°32' E 013°54'815.8
2019-Jul-15 04:00N 40°28' E 013°45'815.8
2019-Jul-15 03:30N 40°25' E 013°35'10515.6
2019-Jul-14 20:45N 39°49' E 011°26'1314.1
2019-Jul-14 19:49N 39°37' E 011°18'10414.8
2019-Jul-14 12:49N 39°01' E 009°13'515.1
2019-Jul-14 12:30N 39°05' E 009°10'714.8
2019-Jul-14 12:00N 39°12' E 009°06'1 1.8
2019-Jul-14 11:28N 39°13' E 009°06'0 0.0
2019-Jul-14 10:58N 39°13' E 009°06'0 0.0
2019-Jul-14 10:19N 39°13' E 009°06'0 0.0
2019-Jul-14 09:55N 39°13' E 009°06'0 0.0
2019-Jul-14 09:25N 39°13' E 009°06'0 0.0
2019-Jul-14 08:52N 39°13' E 009°06'0 0.0
2019-Jul-14 08:22N 39°13' E 009°06'0 0.0
2019-Jul-14 07:58N 39°13' E 009°06'0 0.0
2019-Jul-14 07:25N 39°13' E 009°06'0 0.0
2019-Jul-14 06:58N 39°13' E 009°06'0 0.0
2019-Jul-14 06:22N 39°13' E 009°06'0 0.0
2019-Jul-14 05:58N 39°13' E 009°06'0 0.0
2019-Jul-14 05:30N 39°13' E 009°06'2 3.1
2019-Jul-14 05:00N 39°11' E 009°07'611.4
2019-Jul-14 04:30N 39°06' E 009°10'  

Dump ship's entire track history